sensor_id;sensor_type;location;lat;lon;timestamp;temperature;humidity
59847;DHT22;45728;48.788;2.302;2023-04-26T00:02:13;7.70;99.90
59847;DHT22;45728;48.788;2.302;2023-04-26T00:04:40;7.70;99.90
59847;DHT22;45728;48.788;2.302;2023-04-26T00:07:06;7.70;99.90
59847;DHT22;45728;48.788;2.302;2023-04-26T00:09:33;7.60;99.90
59847;DHT22;45728;48.788;2.302;2023-04-26T00:11:59;7.60;99.90
59847;DHT22;45728;48.788;2.302;2023-04-26T00:14:25;7.60;99.90
59847;DHT22;45728;48.788;2.302;2023-04-26T00:16:51;7.50;99.90
59847;DHT22;45728;48.788;2.302;2023-04-26T00:19:17;7.50;99.90
59847;DHT22;45728;48.788;2.302;2023-04-26T00:21:43;7.60;99.90
59847;DHT22;45728;48.788;2.302;2023-04-26T00:24:10;7.60;99.90
59847;DHT22;45728;48.788;2.302;2023-04-26T00:26:36;7.40;99.90
59847;DHT22;45728;48.788;2.302;2023-04-26T00:29:05;7.40;99.90
59847;DHT22;45728;48.788;2.302;2023-04-26T00:31:31;7.40;99.90
59847;DHT22;45728;48.788;2.302;2023-04-26T00:33:57;7.30;99.90
59847;DHT22;45728;48.788;2.302;2023-04-26T00:36:23;7.40;99.90
59847;DHT22;45728;48.788;2.302;2023-04-26T00:38:49;7.30;99.90
59847;DHT22;45728;48.788;2.302;2023-04-26T00:41:15;7.30;99.90
59847;DHT22;45728;48.788;2.302;2023-04-26T00:43:41;7.30;99.90
59847;DHT22;45728;48.788;2.302;2023-04-26T00:46:11;7.30;99.90
59847;DHT22;45728;48.788;2.302;2023-04-26T00:48:37;7.40;99.90
59847;DHT22;45728;48.788;2.302;2023-04-26T00:51:04;7.30;99.90
59847;DHT22;45728;48.788;2.302;2023-04-26T00:53:30;7.30;99.90
59847;DHT22;45728;48.788;2.302;2023-04-26T00:55:58;7.30;99.90
59847;DHT22;45728;48.788;2.302;2023-04-26T00:58:24;7.30;99.90
59847;DHT22;45728;48.788;2.302;2023-04-26T01:00:50;7.40;99.90
59847;DHT22;45728;48.788;2.302;2023-04-26T01:03:16;7.50;99.90
59847;DHT22;45728;48.788;2.302;2023-04-26T01:05:43;7.50;99.90
59847;DHT22;45728;48.788;2.302;2023-04-26T01:08:10;7.50;99.90
59847;DHT22;45728;48.788;2.302;2023-04-26T01:10:36;7.40;99.90
59847;DHT22;45728;48.788;2.302;2023-04-26T01:13:04;7.40;99.90
59847;DHT22;45728;48.788;2.302;2023-04-26T01:15:30;7.40;99.90
59847;DHT22;45728;48.788;2.302;2023-04-26T01:17:58;7.40;99.90
59847;DHT22;45728;48.788;2.302;2023-04-26T01:20:25;7.30;99.90
59847;DHT22;45728;48.788;2.302;2023-04-26T01:22:51;7.20;99.90
59847;DHT22;45728;48.788;2.302;2023-04-26T01:25:17;7.10;99.90
59847;DHT22;45728;48.788;2.302;2023-04-26T01:27:44;7.10;99.90
59847;DHT22;45728;48.788;2.302;2023-04-26T01:30:10;7.00;99.90
59847;DHT22;45728;48.788;2.302;2023-04-26T01:32:37;6.90;99.90
59847;DHT22;45728;48.788;2.302;2023-04-26T01:35:04;7.00;99.90
59847;DHT22;45728;48.788;2.302;2023-04-26T01:37:31;7.00;99.90
59847;DHT22;45728;48.788;2.302;2023-04-26T01:39:57;7.00;99.90
59847;DHT22;45728;48.788;2.302;2023-04-26T01:42:23;6.90;99.90
59847;DHT22;45728;48.788;2.302;2023-04-26T01:44:49;6.80;99.90
59847;DHT22;45728;48.788;2.302;2023-04-26T01:47:15;6.80;99.90
59847;DHT22;45728;48.788;2.302;2023-04-26T01:49:41;6.80;99.90
59847;DHT22;45728;48.788;2.302;2023-04-26T01:52:07;6.70;99.90
59847;DHT22;45728;48.788;2.302;2023-04-26T01:54:33;6.60;99.90
59847;DHT22;45728;48.788;2.302;2023-04-26T01:57:00;6.60;99.90
59847;DHT22;45728;48.788;2.302;2023-04-26T01:59:26;6.60;99.90
59847;DHT22;45728;48.788;2.302;2023-04-26T02:01:52;6.60;99.90
59847;DHT22;45728;48.788;2.302;2023-04-26T02:04:18;6.60;99.90
59847;DHT22;45728;48.788;2.302;2023-04-26T02:06:44;6.60;99.90
59847;DHT22;45728;48.788;2.302;2023-04-26T02:09:10;6.70;99.90
59847;DHT22;45728;48.788;2.302;2023-04-26T02:11:36;6.70;99.90
59847;DHT22;45728;48.788;2.302;2023-04-26T02:14:03;6.70;99.90
59847;DHT22;45728;48.788;2.302;2023-04-26T02:16:29;6.80;99.90
59847;DHT22;45728;48.788;2.302;2023-04-26T02:18:55;6.80;99.90
59847;DHT22;45728;48.788;2.302;2023-04-26T02:21:21;6.80;99.90
59847;DHT22;45728;48.788;2.302;2023-04-26T02:23:47;6.80;99.90
59847;DHT22;45728;48.788;2.302;2023-04-26T02:26:14;6.90;99.90
59847;DHT22;45728;48.788;2.302;2023-04-26T02:28:40;6.90;99.90
59847;DHT22;45728;48.788;2.302;2023-04-26T02:31:09;7.00;99.90
59847;DHT22;45728;48.788;2.302;2023-04-26T02:33:36;7.00;99.90
59847;DHT22;45728;48.788;2.302;2023-04-26T02:36:03;7.00;99.90
59847;DHT22;45728;48.788;2.302;2023-04-26T02:38:32;7.00;99.90
59847;DHT22;45728;48.788;2.302;2023-04-26T02:41:00;7.00;99.90
59847;DHT22;45728;48.788;2.302;2023-04-26T02:43:26;7.00;99.90
59847;DHT22;45728;48.788;2.302;2023-04-26T02:45:53;7.10;99.90
59847;DHT22;45728;48.788;2.302;2023-04-26T02:48:19;7.00;99.90
59847;DHT22;45728;48.788;2.302;2023-04-26T02:50:46;7.00;99.90
59847;DHT22;45728;48.788;2.302;2023-04-26T02:53:12;7.00;99.90
59847;DHT22;45728;48.788;2.302;2023-04-26T02:55:38;7.10;99.90
59847;DHT22;45728;48.788;2.302;2023-04-26T02:58:05;7.10;99.90
59847;DHT22;45728;48.788;2.302;2023-04-26T03:00:31;7.10;99.90
59847;DHT22;45728;48.788;2.302;2023-04-26T03:02:59;7.20;99.90
59847;DHT22;45728;48.788;2.302;2023-04-26T03:05:25;7.20;99.90
59847;DHT22;45728;48.788;2.302;2023-04-26T03:07:51;7.20;99.90
59847;DHT22;45728;48.788;2.302;2023-04-26T03:10:17;7.20;99.90
59847;DHT22;45728;48.788;2.302;2023-04-26T03:12:43;7.20;99.90
59847;DHT22;45728;48.788;2.302;2023-04-26T03:15:09;7.30;99.90
59847;DHT22;45728;48.788;2.302;2023-04-26T03:17:36;7.20;99.90
59847;DHT22;45728;48.788;2.302;2023-04-26T03:20:02;7.20;99.90
59847;DHT22;45728;48.788;2.302;2023-04-26T03:22:31;7.20;99.90
59847;DHT22;45728;48.788;2.302;2023-04-26T03:24:57;7.20;99.90
59847;DHT22;45728;48.788;2.302;2023-04-26T03:27:23;7.20;99.90
59847;DHT22;45728;48.788;2.302;2023-04-26T03:29:49;7.20;99.90
59847;DHT22;45728;48.788;2.302;2023-04-26T03:32:15;7.30;99.90
59847;DHT22;45728;48.788;2.302;2023-04-26T03:34:41;7.30;99.90
59847;DHT22;45728;48.788;2.302;2023-04-26T03:37:07;7.20;99.90
59847;DHT22;45728;48.788;2.302;2023-04-26T03:39:34;7.20;99.90
59847;DHT22;45728;48.788;2.302;2023-04-26T03:42:00;7.20;99.90
59847;DHT22;45728;48.788;2.302;2023-04-26T03:44:26;7.30;99.90
59847;DHT22;45728;48.788;2.302;2023-04-26T03:46:52;7.20;99.90
59847;DHT22;45728;48.788;2.302;2023-04-26T03:49:18;7.20;99.90
59847;DHT22;45728;48.788;2.302;2023-04-26T03:51:44;7.20;99.90
59847;DHT22;45728;48.788;2.302;2023-04-26T03:54:10;7.20;99.90
59847;DHT22;45728;48.788;2.302;2023-04-26T03:56:36;7.20;99.90
59847;DHT22;45728;48.788;2.302;2023-04-26T03:59:03;7.30;99.90
59847;DHT22;45728;48.788;2.302;2023-04-26T04:01:29;7.30;99.90
59847;DHT22;45728;48.788;2.302;2023-04-26T04:03:56;7.30;99.90
59847;DHT22;45728;48.788;2.302;2023-04-26T04:06:22;7.30;99.90
59847;DHT22;45728;48.788;2.302;2023-04-26T04:08:48;7.30;99.90
59847;DHT22;45728;48.788;2.302;2023-04-26T04:11:14;7.30;99.90
59847;DHT22;45728;48.788;2.302;2023-04-26T04:13:40;7.30;99.90
59847;DHT22;45728;48.788;2.302;2023-04-26T04:16:07;7.30;99.90
59847;DHT22;45728;48.788;2.302;2023-04-26T04:18:35;7.30;99.90
59847;DHT22;45728;48.788;2.302;2023-04-26T04:21:01;7.30;99.90
59847;DHT22;45728;48.788;2.302;2023-04-26T04:23:27;7.30;99.90
59847;DHT22;45728;48.788;2.302;2023-04-26T04:25:53;7.30;99.90
59847;DHT22;45728;48.788;2.302;2023-04-26T04:28:19;7.40;99.90
59847;DHT22;45728;48.788;2.302;2023-04-26T04:30:47;7.40;99.90
59847;DHT22;45728;48.788;2.302;2023-04-26T04:33:13;7.40;99.90
59847;DHT22;45728;48.788;2.302;2023-04-26T04:35:42;7.40;99.90
59847;DHT22;45728;48.788;2.302;2023-04-26T04:38:09;7.40;99.90
59847;DHT22;45728;48.788;2.302;2023-04-26T04:40:35;7.40;99.90
59847;DHT22;45728;48.788;2.302;2023-04-26T04:43:01;7.40;99.90
59847;DHT22;45728;48.788;2.302;2023-04-26T04:45:28;7.40;99.90
59847;DHT22;45728;48.788;2.302;2023-04-26T04:47:54;7.40;99.90
59847;DHT22;45728;48.788;2.302;2023-04-26T04:50:21;7.40;99.90
59847;DHT22;45728;48.788;2.302;2023-04-26T04:52:48;7.30;99.90
59847;DHT22;45728;48.788;2.302;2023-04-26T04:55:14;7.40;99.90
59847;DHT22;45728;48.788;2.302;2023-04-26T04:57:40;7.40;99.90
59847;DHT22;45728;48.788;2.302;2023-04-26T05:00:07;7.40;99.90
59847;DHT22;45728;48.788;2.302;2023-04-26T05:02:40;7.40;99.90
59847;DHT22;45728;48.788;2.302;2023-04-26T05:05:07;7.40;99.90
59847;DHT22;45728;48.788;2.302;2023-04-26T05:07:33;7.50;99.90
59847;DHT22;45728;48.788;2.302;2023-04-26T05:10:00;7.50;99.90
59847;DHT22;45728;48.788;2.302;2023-04-26T05:12:26;7.50;99.90
59847;DHT22;45728;48.788;2.302;2023-04-26T05:14:52;7.50;99.90
59847;DHT22;45728;48.788;2.302;2023-04-26T05:17:18;7.50;99.90
59847;DHT22;45728;48.788;2.302;2023-04-26T05:19:44;7.50;99.90
59847;DHT22;45728;48.788;2.302;2023-04-26T05:22:11;7.50;99.90
59847;DHT22;45728;48.788;2.302;2023-04-26T05:24:46;7.60;99.90
59847;DHT22;45728;48.788;2.302;2023-04-26T05:27:12;7.50;99.90
59847;DHT22;45728;48.788;2.302;2023-04-26T05:29:39;7.50;99.90
59847;DHT22;45728;48.788;2.302;2023-04-26T05:32:05;7.50;99.90
59847;DHT22;45728;48.788;2.302;2023-04-26T05:34:31;7.60;99.90
59847;DHT22;45728;48.788;2.302;2023-04-26T05:36:57;7.60;99.90
59847;DHT22;45728;48.788;2.302;2023-04-26T05:39:23;7.60;99.90
59847;DHT22;45728;48.788;2.302;2023-04-26T05:41:50;7.70;99.90
59847;DHT22;45728;48.788;2.302;2023-04-26T05:44:16;7.70;99.90
59847;DHT22;45728;48.788;2.302;2023-04-26T05:46:42;7.80;99.90
59847;DHT22;45728;48.788;2.302;2023-04-26T05:49:08;7.80;99.90
59847;DHT22;45728;48.788;2.302;2023-04-26T05:51:34;7.80;99.90
59847;DHT22;45728;48.788;2.302;2023-04-26T05:54:00;7.80;99.90
59847;DHT22;45728;48.788;2.302;2023-04-26T05:56:26;7.80;99.90
59847;DHT22;45728;48.788;2.302;2023-04-26T05:58:52;7.80;99.90
59847;DHT22;45728;48.788;2.302;2023-04-26T06:01:18;7.80;99.90
59847;DHT22;45728;48.788;2.302;2023-04-26T06:03:45;7.80;99.90
59847;DHT22;45728;48.788;2.302;2023-04-26T06:06:11;7.80;99.90
59847;DHT22;45728;48.788;2.302;2023-04-26T06:08:37;7.80;99.90
59847;DHT22;45728;48.788;2.302;2023-04-26T06:11:03;7.80;99.90
59847;DHT22;45728;48.788;2.302;2023-04-26T06:13:30;7.70;99.90
59847;DHT22;45728;48.788;2.302;2023-04-26T06:15:57;7.70;99.90
59847;DHT22;45728;48.788;2.302;2023-04-26T06:18:23;7.80;99.90
59847;DHT22;45728;48.788;2.302;2023-04-26T06:20:50;7.90;99.90
59847;DHT22;45728;48.788;2.302;2023-04-26T06:23:16;7.90;99.90
59847;DHT22;45728;48.788;2.302;2023-04-26T06:25:42;8.00;99.90
59847;DHT22;45728;48.788;2.302;2023-04-26T06:28:11;8.00;99.90
59847;DHT22;45728;48.788;2.302;2023-04-26T06:30:37;8.10;99.90
59847;DHT22;45728;48.788;2.302;2023-04-26T06:33:03;8.20;99.90
59847;DHT22;45728;48.788;2.302;2023-04-26T06:35:30;8.20;99.90
59847;DHT22;45728;48.788;2.302;2023-04-26T06:37:56;8.20;99.90
59847;DHT22;45728;48.788;2.302;2023-04-26T06:40:22;8.20;99.90
59847;DHT22;45728;48.788;2.302;2023-04-26T06:42:48;8.30;99.90
59847;DHT22;45728;48.788;2.302;2023-04-26T06:45:14;8.50;99.90
59847;DHT22;45728;48.788;2.302;2023-04-26T06:47:40;8.20;99.90
59847;DHT22;45728;48.788;2.302;2023-04-26T06:50:07;8.30;99.90
59847;DHT22;45728;48.788;2.302;2023-04-26T06:52:33;8.30;99.90
59847;DHT22;45728;48.788;2.302;2023-04-26T06:55:02;8.30;99.90
59847;DHT22;45728;48.788;2.302;2023-04-26T06:57:29;8.40;99.90
59847;DHT22;45728;48.788;2.302;2023-04-26T06:59:55;8.60;99.90
59847;DHT22;45728;48.788;2.302;2023-04-26T07:02:22;8.70;99.90
59847;DHT22;45728;48.788;2.302;2023-04-26T07:04:49;8.80;99.90
59847;DHT22;45728;48.788;2.302;2023-04-26T07:07:15;8.90;99.90
59847;DHT22;45728;48.788;2.302;2023-04-26T07:09:42;9.00;99.90
59847;DHT22;45728;48.788;2.302;2023-04-26T07:12:11;9.10;99.90
59847;DHT22;45728;48.788;2.302;2023-04-26T07:14:37;9.20;99.90
59847;DHT22;45728;48.788;2.302;2023-04-26T07:17:06;9.40;99.90
59847;DHT22;45728;48.788;2.302;2023-04-26T07:19:32;9.60;99.90
59847;DHT22;45728;48.788;2.302;2023-04-26T07:21:58;9.40;99.90
59847;DHT22;45728;48.788;2.302;2023-04-26T07:24:24;9.40;99.90
59847;DHT22;45728;48.788;2.302;2023-04-26T07:26:50;9.10;99.90
59847;DHT22;45728;48.788;2.302;2023-04-26T07:29:17;9.30;99.90
59847;DHT22;45728;48.788;2.302;2023-04-26T07:31:46;9.50;99.90
59847;DHT22;45728;48.788;2.302;2023-04-26T07:34:12;9.70;99.90
59847;DHT22;45728;48.788;2.302;2023-04-26T07:36:38;9.80;99.90
59847;DHT22;45728;48.788;2.302;2023-04-26T07:39:04;9.80;99.90
59847;DHT22;45728;48.788;2.302;2023-04-26T07:41:31;10.00;99.90
59847;DHT22;45728;48.788;2.302;2023-04-26T07:43:57;10.00;99.90
59847;DHT22;45728;48.788;2.302;2023-04-26T07:46:24;10.20;99.90
59847;DHT22;45728;48.788;2.302;2023-04-26T07:48:50;10.30;99.90
59847;DHT22;45728;48.788;2.302;2023-04-26T07:51:16;10.30;99.90
59847;DHT22;45728;48.788;2.302;2023-04-26T07:53:42;10.50;99.90
59847;DHT22;45728;48.788;2.302;2023-04-26T07:56:08;10.60;99.90
59847;DHT22;45728;48.788;2.302;2023-04-26T07:58:35;10.50;99.90
59847;DHT22;45728;48.788;2.302;2023-04-26T08:01:02;10.50;99.90
59847;DHT22;45728;48.788;2.302;2023-04-26T08:03:31;10.40;99.90
59847;DHT22;45728;48.788;2.302;2023-04-26T08:05:57;10.60;99.90
59847;DHT22;45728;48.788;2.302;2023-04-26T08:08:26;10.70;99.90
59847;DHT22;45728;48.788;2.302;2023-04-26T08:10:53;10.50;99.90
59847;DHT22;45728;48.788;2.302;2023-04-26T08:13:19;10.60;99.90
59847;DHT22;45728;48.788;2.302;2023-04-26T08:15:46;10.80;99.90
59847;DHT22;45728;48.788;2.302;2023-04-26T08:18:12;11.10;99.90
59847;DHT22;45728;48.788;2.302;2023-04-26T08:20:39;11.00;99.90
59847;DHT22;45728;48.788;2.302;2023-04-26T08:23:05;11.00;99.90
59847;DHT22;45728;48.788;2.302;2023-04-26T08:25:31;11.00;99.90
59847;DHT22;45728;48.788;2.302;2023-04-26T08:27:59;11.20;99.90
59847;DHT22;45728;48.788;2.302;2023-04-26T08:30:25;11.20;99.90
59847;DHT22;45728;48.788;2.302;2023-04-26T08:32:51;11.30;99.90
59847;DHT22;45728;48.788;2.302;2023-04-26T08:35:18;11.50;99.90
59847;DHT22;45728;48.788;2.302;2023-04-26T08:37:44;11.60;99.90
59847;DHT22;45728;48.788;2.302;2023-04-26T08:40:10;11.70;99.90
59847;DHT22;45728;48.788;2.302;2023-04-26T08:42:42;11.80;99.90
59847;DHT22;45728;48.788;2.302;2023-04-26T08:45:09;11.70;99.90
59847;DHT22;45728;48.788;2.302;2023-04-26T08:47:39;11.80;99.90
59847;DHT22;45728;48.788;2.302;2023-04-26T08:50:07;12.00;99.90
59847;DHT22;45728;48.788;2.302;2023-04-26T08:52:36;12.10;99.90
59847;DHT22;45728;48.788;2.302;2023-04-26T08:55:04;12.10;99.90
59847;DHT22;45728;48.788;2.302;2023-04-26T08:57:31;12.10;99.90
59847;DHT22;45728;48.788;2.302;2023-04-26T08:59:58;12.30;99.90
59847;DHT22;45728;48.788;2.302;2023-04-26T09:02:24;12.50;99.90
59847;DHT22;45728;48.788;2.302;2023-04-26T09:04:50;12.60;99.90
59847;DHT22;45728;48.788;2.302;2023-04-26T09:07:21;12.50;99.90
59847;DHT22;45728;48.788;2.302;2023-04-26T09:09:51;12.50;99.90
59847;DHT22;45728;48.788;2.302;2023-04-26T09:12:19;12.60;99.90
59847;DHT22;45728;48.788;2.302;2023-04-26T09:14:46;12.60;99.90
59847;DHT22;45728;48.788;2.302;2023-04-26T09:17:29;12.50;99.90
59847;DHT22;45728;48.788;2.302;2023-04-26T09:19:56;12.70;99.90
59847;DHT22;45728;48.788;2.302;2023-04-26T09:22:33;12.80;99.90
59847;DHT22;45728;48.788;2.302;2023-04-26T09:25:01;12.90;99.90
59847;DHT22;45728;48.788;2.302;2023-04-26T09:30:07;12.90;99.90
59847;DHT22;45728;48.788;2.302;2023-04-26T09:32:58;12.80;99.90
59847;DHT22;45728;48.788;2.302;2023-04-26T09:35:37;12.80;99.90
59847;DHT22;45728;48.788;2.302;2023-04-26T09:38:15;12.90;99.90
59847;DHT22;45728;48.788;2.302;2023-04-26T09:40:43;12.50;99.90
59847;DHT22;45728;48.788;2.302;2023-04-26T09:43:14;12.60;99.90
59847;DHT22;45728;48.788;2.302;2023-04-26T09:45:48;12.80;99.90
59847;DHT22;45728;48.788;2.302;2023-04-26T09:48:26;13.00;99.90
59847;DHT22;45728;48.788;2.302;2023-04-26T09:50:57;12.80;99.90
59847;DHT22;45728;48.788;2.302;2023-04-26T09:53:36;12.60;99.90
59847;DHT22;45728;48.788;2.302;2023-04-26T10:01:14;13.10;99.90
59847;DHT22;45728;48.788;2.302;2023-04-26T10:03:41;13.40;99.90
59847;DHT22;45728;48.788;2.302;2023-04-26T10:06:08;13.40;99.90
59847;DHT22;45728;48.788;2.302;2023-04-26T10:08:35;13.50;99.90
59847;DHT22;45728;48.788;2.302;2023-04-26T10:11:05;13.60;99.90
59847;DHT22;45728;48.788;2.302;2023-04-26T10:13:33;13.60;99.90
59847;DHT22;45728;48.788;2.302;2023-04-26T10:15:59;13.90;99.90
59847;DHT22;45728;48.788;2.302;2023-04-26T10:18:27;14.00;99.90
59847;DHT22;45728;48.788;2.302;2023-04-26T10:20:56;14.20;99.90
59847;DHT22;45728;48.788;2.302;2023-04-26T10:23:23;14.20;99.90
59847;DHT22;45728;48.788;2.302;2023-04-26T10:25:53;14.20;99.90
59847;DHT22;45728;48.788;2.302;2023-04-26T10:28:55;14.20;99.90
59847;DHT22;45728;48.788;2.302;2023-04-26T10:31:22;14.20;99.90
59847;DHT22;45728;48.788;2.302;2023-04-26T10:34:17;14.40;99.90
59847;DHT22;45728;48.788;2.302;2023-04-26T10:37:13;14.00;99.90
59847;DHT22;45728;48.788;2.302;2023-04-26T10:39:42;14.40;99.90
59847;DHT22;45728;48.788;2.302;2023-04-26T10:45:00;14.70;99.90
59847;DHT22;45728;48.788;2.302;2023-04-26T10:47:43;14.70;99.90
59847;DHT22;45728;48.788;2.302;2023-04-26T10:50:10;14.70;99.90
59847;DHT22;45728;48.788;2.302;2023-04-26T10:55:41;14.40;99.90
59847;DHT22;45728;48.788;2.302;2023-04-26T10:58:27;14.10;99.90
59847;DHT22;45728;48.788;2.302;2023-04-26T11:01:07;14.50;99.90
59847;DHT22;45728;48.788;2.302;2023-04-26T11:03:36;14.00;99.90
59847;DHT22;45728;48.788;2.302;2023-04-26T11:06:07;14.00;99.90
59847;DHT22;45728;48.788;2.302;2023-04-26T11:08:34;13.90;99.90
59847;DHT22;45728;48.788;2.302;2023-04-26T11:11:19;13.80;99.90
59847;DHT22;45728;48.788;2.302;2023-04-26T11:13:51;13.70;99.90
59847;DHT22;45728;48.788;2.302;2023-04-26T11:16:17;13.60;99.90
59847;DHT22;45728;48.788;2.302;2023-04-26T11:18:45;13.70;99.90
59847;DHT22;45728;48.788;2.302;2023-04-26T11:21:12;13.90;99.90
59847;DHT22;45728;48.788;2.302;2023-04-26T11:23:42;14.10;99.90
59847;DHT22;45728;48.788;2.302;2023-04-26T11:26:17;14.30;99.90
59847;DHT22;45728;48.788;2.302;2023-04-26T11:28:43;14.40;99.90
59847;DHT22;45728;48.788;2.302;2023-04-26T11:31:11;14.50;99.90
59847;DHT22;45728;48.788;2.302;2023-04-26T11:33:40;14.30;99.90
59847;DHT22;45728;48.788;2.302;2023-04-26T11:36:06;14.10;99.90
59847;DHT22;45728;48.788;2.302;2023-04-26T11:38:32;14.20;99.90
59847;DHT22;45728;48.788;2.302;2023-04-26T11:41:02;14.30;99.90
59847;DHT22;45728;48.788;2.302;2023-04-26T11:46:00;14.50;99.90
59847;DHT22;45728;48.788;2.302;2023-04-26T11:48:27;14.40;99.90
59847;DHT22;45728;48.788;2.302;2023-04-26T11:50:58;14.50;99.90
59847;DHT22;45728;48.788;2.302;2023-04-26T11:53:34;14.60;99.90
59847;DHT22;45728;48.788;2.302;2023-04-26T11:56:03;14.60;99.90
59847;DHT22;45728;48.788;2.302;2023-04-26T11:58:30;14.50;99.90
59847;DHT22;45728;48.788;2.302;2023-04-26T12:01:00;14.70;99.90
59847;DHT22;45728;48.788;2.302;2023-04-26T12:03:33;14.60;99.90
59847;DHT22;45728;48.788;2.302;2023-04-26T12:06:03;14.80;99.90
59847;DHT22;45728;48.788;2.302;2023-04-26T12:08:31;14.90;99.90
59847;DHT22;45728;48.788;2.302;2023-04-26T12:11:01;14.90;99.90
59847;DHT22;45728;48.788;2.302;2023-04-26T12:13:28;14.60;99.90
59847;DHT22;45728;48.788;2.302;2023-04-26T12:15:55;14.90;99.90
59847;DHT22;45728;48.788;2.302;2023-04-26T12:18:21;14.60;99.90
59847;DHT22;45728;48.788;2.302;2023-04-26T12:20:57;14.60;99.90
59847;DHT22;45728;48.788;2.302;2023-04-26T12:23:23;14.60;99.90
59847;DHT22;45728;48.788;2.302;2023-04-26T12:25:55;14.70;99.90
59847;DHT22;45728;48.788;2.302;2023-04-26T12:28:22;14.40;99.90
59847;DHT22;45728;48.788;2.302;2023-04-26T12:30:50;14.30;99.90
59847;DHT22;45728;48.788;2.302;2023-04-26T12:33:16;14.50;99.90
59847;DHT22;45728;48.788;2.302;2023-04-26T12:35:45;14.30;99.90
59847;DHT22;45728;48.788;2.302;2023-04-26T12:38:11;14.50;99.90
59847;DHT22;45728;48.788;2.302;2023-04-26T12:40:38;14.70;99.90
59847;DHT22;45728;48.788;2.302;2023-04-26T12:43:04;14.90;99.90
59847;DHT22;45728;48.788;2.302;2023-04-26T12:45:30;15.00;99.90
59847;DHT22;45728;48.788;2.302;2023-04-26T12:47:56;15.00;99.90
59847;DHT22;45728;48.788;2.302;2023-04-26T12:50:22;15.10;99.90
59847;DHT22;45728;48.788;2.302;2023-04-26T12:52:48;14.90;99.90
59847;DHT22;45728;48.788;2.302;2023-04-26T12:55:15;14.80;99.90
59847;DHT22;45728;48.788;2.302;2023-04-26T12:57:42;14.70;99.90
59847;DHT22;45728;48.788;2.302;2023-04-26T13:00:12;14.50;99.90
59847;DHT22;45728;48.788;2.302;2023-04-26T13:02:38;14.50;99.90
59847;DHT22;45728;48.788;2.302;2023-04-26T13:05:05;14.70;99.90
59847;DHT22;45728;48.788;2.302;2023-04-26T13:07:32;14.80;99.90
59847;DHT22;45728;48.788;2.302;2023-04-26T13:09:59;14.80;99.90
59847;DHT22;45728;48.788;2.302;2023-04-26T13:12:26;14.80;99.90
59847;DHT22;45728;48.788;2.302;2023-04-26T13:14:53;14.80;99.90
59847;DHT22;45728;48.788;2.302;2023-04-26T13:17:19;14.20;99.90
59847;DHT22;45728;48.788;2.302;2023-04-26T13:19:47;14.30;99.90
59847;DHT22;45728;48.788;2.302;2023-04-26T13:22:14;14.50;99.90
59847;DHT22;45728;48.788;2.302;2023-04-26T13:24:40;14.80;99.90
59847;DHT22;45728;48.788;2.302;2023-04-26T13:27:06;14.70;99.90
59847;DHT22;45728;48.788;2.302;2023-04-26T13:29:33;14.70;99.90
59847;DHT22;45728;48.788;2.302;2023-04-26T13:32:00;14.80;99.90
59847;DHT22;45728;48.788;2.302;2023-04-26T13:34:27;15.00;99.90
59847;DHT22;45728;48.788;2.302;2023-04-26T13:36:55;14.60;99.90
59847;DHT22;45728;48.788;2.302;2023-04-26T13:39:26;14.80;99.90
59847;DHT22;45728;48.788;2.302;2023-04-26T13:41:55;15.10;99.90
59847;DHT22;45728;48.788;2.302;2023-04-26T13:44:24;15.20;99.90
59847;DHT22;45728;48.788;2.302;2023-04-26T13:46:52;15.40;99.90
59847;DHT22;45728;48.788;2.302;2023-04-26T13:49:18;15.20;99.90
59847;DHT22;45728;48.788;2.302;2023-04-26T13:51:46;15.20;99.90
59847;DHT22;45728;48.788;2.302;2023-04-26T13:54:12;15.10;99.90
59847;DHT22;45728;48.788;2.302;2023-04-26T13:56:38;14.90;99.90
59847;DHT22;45728;48.788;2.302;2023-04-26T13:59:04;15.30;99.90
59847;DHT22;45728;48.788;2.302;2023-04-26T14:01:33;15.50;99.90
59847;DHT22;45728;48.788;2.302;2023-04-26T14:04:01;15.50;99.90
59847;DHT22;45728;48.788;2.302;2023-04-26T14:06:27;15.20;99.90
59847;DHT22;45728;48.788;2.302;2023-04-26T14:08:53;15.20;99.90
59847;DHT22;45728;48.788;2.302;2023-04-26T14:11:19;15.00;99.90
59847;DHT22;45728;48.788;2.302;2023-04-26T14:13:46;15.00;99.90
59847;DHT22;45728;48.788;2.302;2023-04-26T14:16:12;15.30;99.90
59847;DHT22;45728;48.788;2.302;2023-04-26T14:18:38;15.60;99.90
59847;DHT22;45728;48.788;2.302;2023-04-26T14:21:12;15.70;99.90
59847;DHT22;45728;48.788;2.302;2023-04-26T14:23:39;15.70;99.90
59847;DHT22;45728;48.788;2.302;2023-04-26T14:26:05;15.70;99.90
59847;DHT22;45728;48.788;2.302;2023-04-26T14:28:31;15.70;99.90
59847;DHT22;45728;48.788;2.302;2023-04-26T14:30:57;15.80;99.90
59847;DHT22;45728;48.788;2.302;2023-04-26T14:33:23;15.50;99.90
59847;DHT22;45728;48.788;2.302;2023-04-26T14:35:49;15.20;99.90
59847;DHT22;45728;48.788;2.302;2023-04-26T14:38:16;15.20;99.90
59847;DHT22;45728;48.788;2.302;2023-04-26T14:40:43;15.00;99.90
59847;DHT22;45728;48.788;2.302;2023-04-26T14:43:10;14.70;99.90
59847;DHT22;45728;48.788;2.302;2023-04-26T14:45:36;14.90;99.90
59847;DHT22;45728;48.788;2.302;2023-04-26T14:48:02;15.10;99.90
59847;DHT22;45728;48.788;2.302;2023-04-26T14:50:28;15.10;99.90
59847;DHT22;45728;48.788;2.302;2023-04-26T14:52:54;15.00;99.90
59847;DHT22;45728;48.788;2.302;2023-04-26T14:55:21;15.00;99.90
59847;DHT22;45728;48.788;2.302;2023-04-26T14:57:48;15.20;99.90
59847;DHT22;45728;48.788;2.302;2023-04-26T15:00:14;15.40;99.90
59847;DHT22;45728;48.788;2.302;2023-04-26T15:02:42;15.40;99.90
59847;DHT22;45728;48.788;2.302;2023-04-26T15:05:09;15.30;99.90
59847;DHT22;45728;48.788;2.302;2023-04-26T15:07:36;15.00;99.90
59847;DHT22;45728;48.788;2.302;2023-04-26T15:10:03;14.60;99.90
59847;DHT22;45728;48.788;2.302;2023-04-26T15:12:30;14.70;99.90
59847;DHT22;45728;48.788;2.302;2023-04-26T15:14:56;14.90;99.90
59847;DHT22;45728;48.788;2.302;2023-04-26T15:17:22;14.80;99.90
59847;DHT22;45728;48.788;2.302;2023-04-26T15:19:48;14.70;99.90
59847;DHT22;45728;48.788;2.302;2023-04-26T15:22:14;14.50;99.90
59847;DHT22;45728;48.788;2.302;2023-04-26T15:24:41;14.60;99.90
59847;DHT22;45728;48.788;2.302;2023-04-26T15:27:07;14.70;99.90
59847;DHT22;45728;48.788;2.302;2023-04-26T15:29:33;14.90;99.90
59847;DHT22;45728;48.788;2.302;2023-04-26T15:31:59;15.00;99.90
59847;DHT22;45728;48.788;2.302;2023-04-26T15:34:26;15.10;99.90
59847;DHT22;45728;48.788;2.302;2023-04-26T15:36:58;15.00;99.90
59847;DHT22;45728;48.788;2.302;2023-04-26T15:39:25;15.10;99.90
59847;DHT22;45728;48.788;2.302;2023-04-26T15:41:51;15.10;99.90
59847;DHT22;45728;48.788;2.302;2023-04-26T15:44:18;15.10;99.90
59847;DHT22;45728;48.788;2.302;2023-04-26T15:46:44;14.90;99.90
59847;DHT22;45728;48.788;2.302;2023-04-26T15:49:10;14.70;99.90
59847;DHT22;45728;48.788;2.302;2023-04-26T15:51:55;14.80;99.90
59847;DHT22;45728;48.788;2.302;2023-04-26T15:54:22;14.90;99.90
59847;DHT22;45728;48.788;2.302;2023-04-26T15:56:48;15.00;99.90